createdAt,value
2023-01-29T00:00:15.631Z,60.90
2023-01-29T00:03:03.997Z,60.79
2023-01-29T00:05:32.247Z,60.45
2023-01-29T00:08:00.221Z,59.81
2023-01-29T00:10:28.134Z,59.27
2023-01-29T00:12:56.103Z,59.50
2023-01-29T00:15:24.009Z,59.63
2023-01-29T00:17:52.115Z,59.55
2023-01-29T00:20:20.166Z,59.57
2023-01-29T00:22:48.135Z,59.54
2023-01-29T00:25:16.193Z,59.51
2023-01-29T00:27:44.826Z,59.78
2023-01-29T00:30:13.641Z,60.02
2023-01-29T00:33:01.548Z,60.15
2023-01-29T00:35:29.629Z,60.40
2023-01-29T00:37:58.793Z,60.66
2023-01-29T00:40:27.011Z,60.71
2023-01-29T00:43:14.258Z,60.74
2023-01-29T00:45:42.262Z,60.85
2023-01-29T00:48:10.218Z,60.97
2023-01-29T00:50:38.210Z,60.85
2023-01-29T00:53:07.094Z,60.74
2023-01-29T00:55:35.001Z,60.75
2023-01-29T00:58:03.103Z,60.73
2023-01-29T01:00:31.173Z,60.83
2023-01-29T01:03:08.085Z,60.56
2023-01-29T01:05:39.231Z,60.67
2023-01-29T01:08:27.345Z,60.64
2023-01-29T01:11:03.812Z,60.68
2023-01-29T01:13:33.540Z,60.64
2023-01-29T01:16:01.519Z,60.87
2023-01-29T01:18:30.937Z,60.73
2023-01-29T01:20:59.733Z,60.56
2023-01-29T01:23:36.042Z,60.33
2023-01-29T01:26:09.599Z,60.18
2023-01-29T01:28:37.569Z,60.09
2023-01-29T01:31:10.795Z,60.09
2023-01-29T01:33:59.111Z,60.10
2023-01-29T01:36:27.190Z,60.04
2023-01-29T01:38:55.339Z,59.72
2023-01-29T01:41:24.147Z,59.55
2023-01-29T01:43:57.785Z,59.54
2023-01-29T01:46:29.039Z,59.64
2023-01-29T01:49:05.952Z,59.63
2023-01-29T01:51:39.233Z,59.32
2023-01-29T01:54:28.649Z,59.07
2023-01-29T01:57:09.603Z,59.01
2023-01-29T01:59:40.506Z,58.86
2023-01-29T02:02:27.055Z,58.68
2023-01-29T02:05:13.731Z,58.64
2023-01-29T02:08:02.907Z,58.80
2023-01-29T02:10:37.815Z,58.81
2023-01-29T02:13:07.493Z,58.73
2023-01-29T02:15:35.882Z,58.28
2023-01-29T02:18:04.011Z,58.04
2023-01-29T02:20:32.395Z,57.93
2023-01-29T02:23:19.054Z,57.72
2023-01-29T02:26:00.323Z,57.40
2023-01-29T02:29:19.891Z,57.57
2023-01-29T02:31:58.092Z,57.35
2023-01-29T02:34:59.700Z,57.35
2023-01-29T02:37:36.430Z,57.20
2023-01-29T02:40:38.627Z,57.05
2023-01-29T02:43:16.583Z,56.72
2023-01-29T02:46:14.591Z,56.71
2023-01-29T02:49:07.124Z,56.79
2023-01-29T02:51:44.900Z,56.60
2023-01-29T02:54:20.462Z,56.40
2023-01-29T02:57:04.661Z,56.54
2023-01-29T02:59:42.433Z,56.23
2023-01-29T03:02:20.221Z,55.99
2023-01-29T03:04:55.788Z,55.81
2023-01-29T03:07:42.708Z,55.65
2023-01-29T03:10:47.191Z,55.68
2023-01-29T03:13:18.647Z,55.42
2023-01-29T03:15:54.996Z,55.47
2023-01-29T03:18:46.374Z,55.47
2023-01-29T03:21:41.425Z,55.33
2023-01-29T03:24:32.274Z,55.37
2023-01-29T03:27:23.643Z,55.09
2023-01-29T03:30:13.609Z,55.20
2023-01-29T03:33:03.577Z,55.10
2023-01-29T03:35:39.678Z,55.35
2023-01-29T03:38:11.451Z,55.23
2023-01-29T03:40:50.717Z,55.13
2023-01-29T03:43:39.948Z,55.21
2023-01-29T03:46:19.152Z,54.85
2023-01-29T03:49:27.344Z,54.79
2023-01-29T03:52:00.675Z,54.98
2023-01-29T03:55:01.037Z,55.27
2023-01-29T03:57:41.427Z,55.24
2023-01-29T04:00:23.978Z,55.05
2023-01-29T04:03:20.625Z,54.75
2023-01-29T04:06:10.146Z,54.79
2023-01-29T04:09:14.588Z,54.46
2023-01-29T04:11:50.242Z,54.46
2023-01-29T04:14:18.811Z,54.28
2023-01-29T04:16:51.893Z,54.28
2023-01-29T04:19:39.324Z,53.96
2023-01-29T04:22:16.052Z,54.01
2023-01-29T04:24:44.122Z,54.18
2023-01-29T04:27:21.509Z,54.37
2023-01-29T04:30:08.699Z,54.36
2023-01-29T04:32:48.128Z,54.55
2023-01-29T04:35:16.017Z,54.67
2023-01-29T04:38:05.417Z,54.47
2023-01-29T04:41:12.057Z,54.29
2023-01-29T04:43:59.819Z,54.25
2023-01-29T04:46:36.233Z,54.68
2023-01-29T04:49:18.036Z,54.79
2023-01-29T04:52:05.190Z,54.60
2023-01-29T04:55:08.552Z,54.44
2023-01-29T04:57:58.272Z,54.54
2023-01-29T05:00:35.625Z,54.48
2023-01-29T05:03:04.523Z,54.53
2023-01-29T05:05:33.000Z,54.30
2023-01-29T05:08:01.547Z,54.23
2023-01-29T05:10:29.601Z,54.00
2023-01-29T05:13:03.792Z,53.82
2023-01-29T05:15:44.858Z,53.47
2023-01-29T05:18:13.395Z,53.50
2023-01-29T05:20:44.291Z,53.46
2023-01-29T05:23:20.827Z,53.35
2023-01-29T05:25:50.884Z,53.37
2023-01-29T05:28:19.291Z,53.30
2023-01-29T05:30:53.201Z,53.32
2023-01-29T05:33:25.939Z,53.22
2023-01-29T05:35:55.533Z,53.13
2023-01-29T05:38:23.569Z,52.94
2023-01-29T05:40:51.600Z,52.98
2023-01-29T05:43:24.975Z,52.99
2023-01-29T05:46:01.092Z,53.12
2023-01-29T05:48:31.507Z,53.28
2023-01-29T05:51:04.471Z,53.45
2023-01-29T05:53:33.469Z,53.45
2023-01-29T05:56:03.103Z,53.44
2023-01-29T05:58:32.420Z,53.68
2023-01-29T06:01:15.826Z,53.73
2023-01-29T06:03:44.791Z,53.76
2023-01-29T06:06:13.254Z,53.72
2023-01-29T06:08:41.310Z,53.75
2023-01-29T06:11:12.231Z,53.82
2023-01-29T06:13:41.083Z,54.05
2023-01-29T06:16:10.575Z,54.11
2023-01-29T06:18:39.524Z,54.24
2023-01-29T06:21:11.220Z,54.12
2023-01-29T06:23:40.290Z,54.30
2023-01-29T06:26:12.133Z,54.06
2023-01-29T06:28:41.039Z,54.17
2023-01-29T06:31:30.443Z,54.05
2023-01-29T06:33:56.959Z,54.11
2023-01-29T06:36:25.044Z,54.08
2023-01-29T06:38:52.934Z,54.02
2023-01-29T06:41:25.499Z,54.04
2023-01-29T06:43:53.659Z,54.14
2023-01-29T06:46:22.763Z,54.03
2023-01-29T06:48:50.862Z,54.12
2023-01-29T06:51:18.847Z,54.07
2023-01-29T06:53:47.018Z,54.15
2023-01-29T06:56:15.182Z,54.58
2023-01-29T06:58:43.811Z,54.79
2023-01-29T07:01:17.486Z,55.03
2023-01-29T07:03:53.211Z,55.23
2023-01-29T07:06:21.233Z,55.48
2023-01-29T07:08:49.003Z,55.48
2023-01-29T07:11:17.338Z,55.69
2023-01-29T07:13:45.147Z,55.99
2023-01-29T07:16:13.194Z,56.30
2023-01-29T07:18:41.176Z,56.40
2023-01-29T07:21:09.172Z,56.70
2023-01-29T07:23:37.127Z,57.22
2023-01-29T07:26:06.900Z,57.58
2023-01-29T07:28:39.614Z,57.82
2023-01-29T07:31:08.795Z,58.17
2023-01-29T07:33:36.712Z,58.30
2023-01-29T07:36:09.386Z,58.45
2023-01-29T07:38:37.537Z,58.54
2023-01-29T07:41:05.624Z,58.64
2023-01-29T07:43:33.708Z,58.71
2023-01-29T07:46:03.843Z,58.73
2023-01-29T07:48:31.971Z,58.92
2023-01-29T07:51:00.003Z,59.03
2023-01-29T07:53:29.355Z,59.14
2023-01-29T07:55:57.800Z,59.33
2023-01-29T07:58:25.796Z,59.44
2023-01-29T08:00:53.751Z,59.28
2023-01-29T08:03:21.713Z,59.38
2023-01-29T08:05:50.215Z,59.54
2023-01-29T08:08:19.486Z,59.43
2023-01-29T08:10:47.373Z,59.22
2023-01-29T08:13:15.447Z,59.14
2023-01-29T08:15:45.241Z,59.14
2023-01-29T08:18:14.961Z,59.03
2023-01-29T08:20:42.852Z,58.91
2023-01-29T08:23:15.091Z,58.99
2023-01-29T08:25:43.355Z,58.94
2023-01-29T08:28:12.502Z,58.81
2023-01-29T08:30:40.942Z,58.94
2023-01-29T08:33:08.889Z,58.71
2023-01-29T08:35:37.853Z,58.54
2023-01-29T08:38:05.936Z,58.45
2023-01-29T08:40:35.525Z,58.05
2023-01-29T08:43:06.950Z,57.92
2023-01-29T08:45:39.848Z,57.76
2023-01-29T08:48:08.392Z,57.40
2023-01-29T08:50:37.513Z,57.97
2023-01-29T08:53:08.109Z,57.75
2023-01-29T08:55:37.618Z,57.03
2023-01-29T08:58:08.385Z,56.47
2023-01-29T09:00:36.680Z,56.16
2023-01-29T09:03:05.122Z,55.84
2023-01-29T09:05:34.890Z,55.71
2023-01-29T09:08:03.706Z,55.84
2023-01-29T09:10:32.132Z,55.93
2023-01-29T09:13:00.179Z,55.46
2023-01-29T09:15:28.336Z,55.33
2023-01-29T09:17:56.266Z,55.17
2023-01-29T09:20:24.243Z,54.92
2023-01-29T09:22:53.819Z,54.63
2023-01-29T09:25:21.788Z,54.37
2023-01-29T09:27:49.757Z,53.29
2023-01-29T09:30:19.144Z,53.37
2023-01-29T09:32:53.487Z,53.59
2023-01-29T09:35:23.939Z,53.84
2023-01-29T09:37:52.394Z,53.47
2023-01-29T09:40:52.752Z,53.38
2023-01-29T09:43:26.303Z,53.37
2023-01-29T09:46:24.975Z,53.10
2023-01-29T09:49:04.044Z,52.70
2023-01-29T09:51:39.558Z,52.79
2023-01-29T09:54:14.956Z,52.70
2023-01-29T09:56:46.070Z,52.70
2023-01-29T09:59:18.636Z,53.00
2023-01-29T10:02:21.264Z,52.80
2023-01-29T10:05:23.688Z,52.37
2023-01-29T10:07:58.064Z,52.09
2023-01-29T10:10:45.759Z,52.09
2023-01-29T10:13:51.398Z,52.18
2023-01-29T10:16:38.297Z,51.91
2023-01-29T10:19:18.434Z,51.67
2023-01-29T10:21:58.570Z,51.39
2023-01-29T10:24:39.362Z,51.48
2023-01-29T10:27:16.656Z,51.28
2023-01-29T10:29:47.438Z,51.15
2023-01-29T10:32:21.266Z,50.98
2023-01-29T10:35:00.059Z,50.62
2023-01-29T10:37:41.433Z,50.56
2023-01-29T10:40:22.604Z,50.66
2023-01-29T10:43:43.279Z,50.80
2023-01-29T10:46:34.399Z,50.77
2023-01-29T10:49:14.691Z,50.35
2023-01-29T10:52:10.027Z,50.52
2023-01-29T10:54:49.379Z,50.62
2023-01-29T10:57:38.717Z,50.22
2023-01-29T11:00:31.369Z,49.71
2023-01-29T11:03:29.437Z,48.55
2023-01-29T11:06:19.101Z,47.81
2023-01-29T11:09:01.594Z,46.65
2023-01-29T11:11:56.715Z,45.34
2023-01-29T11:14:28.879Z,43.12
2023-01-29T11:16:57.032Z,41.76
2023-01-29T11:19:42.313Z,41.83
2023-01-29T11:22:20.116Z,42.21
2023-01-29T11:25:10.168Z,40.89
2023-01-29T11:27:56.686Z,40.56
2023-01-29T11:30:41.388Z,41.51
2023-01-29T11:33:30.480Z,40.65
2023-01-29T11:35:59.185Z,41.16
2023-01-29T11:38:29.726Z,41.79
2023-01-29T11:41:08.256Z,40.16
2023-01-29T11:43:36.229Z,39.30
2023-01-29T11:46:11.779Z,39.07
2023-01-29T11:48:44.579Z,39.59
2023-01-29T11:51:22.803Z,39.36
2023-01-29T11:53:55.900Z,38.81
2023-01-29T11:56:39.401Z,38.63
2023-01-29T11:59:37.295Z,39.26
2023-01-29T12:02:20.216Z,38.94
2023-01-29T12:04:48.984Z,38.36
2023-01-29T12:07:19.026Z,37.54
2023-01-29T12:09:56.146Z,36.77
2023-01-29T12:12:33.208Z,34.62
2023-01-29T12:15:25.234Z,34.91
2023-01-29T12:18:06.481Z,35.14
2023-01-29T12:20:50.617Z,34.19
2023-01-29T12:23:21.637Z,33.14
2023-01-29T12:26:06.714Z,32.84
2023-01-29T12:28:39.617Z,33.88
2023-01-29T12:31:29.441Z,34.49
2023-01-29T12:34:39.246Z,34.54
2023-01-29T12:37:37.006Z,35.19
2023-01-29T12:40:25.436Z,35.20
2023-01-29T12:42:58.939Z,34.78
2023-01-29T12:45:29.693Z,35.06
2023-01-29T12:48:03.126Z,35.10
2023-01-29T12:50:36.684Z,35.56
2023-01-29T12:53:34.170Z,36.92
2023-01-29T12:56:28.848Z,37.65
2023-01-29T12:59:01.759Z,38.69
2023-01-29T13:01:47.116Z,39.33
2023-01-29T13:04:25.841Z,39.54
2023-01-29T13:07:10.069Z,39.89
2023-01-29T13:09:46.379Z,39.82
2023-01-29T13:12:20.822Z,40.08
2023-01-29T13:15:03.241Z,40.51
2023-01-29T13:17:40.314Z,40.65
2023-01-29T13:20:34.002Z,41.03
2023-01-29T13:23:18.244Z,40.29
2023-01-29T13:25:46.256Z,39.94
2023-01-29T13:28:24.417Z,39.12
2023-01-29T13:31:11.221Z,38.77
2023-01-29T13:33:42.041Z,38.82
2023-01-29T13:36:22.864Z,38.85
2023-01-29T13:39:00.327Z,39.19
2023-01-29T13:41:42.587Z,39.28
2023-01-29T13:44:29.828Z,39.38
2023-01-29T13:47:01.853Z,39.62
2023-01-29T13:49:47.432Z,39.97
2023-01-29T13:52:30.271Z,39.77
2023-01-29T13:55:02.099Z,39.82
2023-01-29T13:57:40.069Z,40.12
2023-01-29T14:00:33.939Z,40.12
2023-01-29T14:03:01.783Z,40.26
2023-01-29T14:05:30.630Z,40.69
2023-01-29T14:07:59.683Z,41.42
2023-01-29T14:10:30.476Z,41.74
2023-01-29T14:13:01.524Z,42.23
2023-01-29T14:15:32.342Z,42.74
2023-01-29T14:18:03.031Z,42.97
2023-01-29T14:20:45.148Z,43.02
2023-01-29T14:23:43.493Z,43.09
2023-01-29T14:26:48.424Z,43.15
2023-01-29T14:29:32.499Z,43.34
2023-01-29T14:32:19.435Z,43.44
2023-01-29T14:34:55.672Z,43.69
2023-01-29T14:37:40.845Z,44.14
2023-01-29T14:40:11.803Z,44.30
2023-01-29T14:42:50.014Z,44.70
2023-01-29T14:45:36.372Z,44.93
2023-01-29T14:48:10.518Z,45.14
2023-01-29T14:51:13.462Z,45.35
2023-01-29T14:53:50.675Z,45.74
2023-01-29T14:56:40.726Z,45.93
2023-01-29T14:59:29.183Z,45.82
2023-01-29T15:01:58.466Z,46.18
2023-01-29T15:04:41.305Z,46.42
2023-01-29T15:07:12.285Z,46.95
2023-01-29T15:09:49.707Z,47.18
2023-01-29T15:12:40.072Z,47.44
2023-01-29T15:15:27.293Z,47.61
2023-01-29T15:17:58.626Z,47.50
2023-01-29T15:20:38.307Z,47.60
2023-01-29T15:23:27.538Z,47.68
2023-01-29T15:26:03.369Z,47.67
2023-01-29T15:28:34.145Z,47.69
2023-01-29T15:31:06.001Z,47.83
2023-01-29T15:33:38.720Z,47.75
2023-01-29T15:36:08.718Z,47.82
2023-01-29T15:38:36.959Z,48.12
2023-01-29T15:41:18.859Z,48.06
2023-01-29T15:43:49.600Z,48.24
2023-01-29T15:46:40.176Z,48.28
2023-01-29T15:49:11.648Z,48.41
2023-01-29T15:51:39.875Z,48.48
2023-01-29T15:54:15.668Z,48.57
2023-01-29T15:56:51.600Z,48.99
2023-01-29T15:59:24.844Z,48.99
2023-01-29T16:01:54.429Z,48.93
2023-01-29T16:04:27.035Z,49.16
2023-01-29T16:06:56.477Z,49.15
2023-01-29T16:09:26.497Z,49.34
2023-01-29T16:11:58.864Z,49.24
2023-01-29T16:14:28.662Z,49.28
2023-01-29T16:16:56.857Z,49.71
2023-01-29T16:19:28.028Z,49.81
2023-01-29T16:22:06.579Z,49.70
2023-01-29T16:24:37.056Z,50.13
2023-01-29T16:27:13.679Z,50.02
2023-01-29T16:29:41.797Z,50.18
2023-01-29T16:32:13.889Z,50.15
2023-01-29T16:34:45.468Z,50.26
2023-01-29T16:37:27.996Z,50.57
2023-01-29T16:39:56.595Z,50.56
2023-01-29T16:42:29.729Z,50.79
2023-01-29T16:44:57.605Z,50.77
2023-01-29T16:47:31.681Z,50.77
2023-01-29T16:50:19.737Z,50.86
2023-01-29T16:53:12.768Z,50.75
2023-01-29T16:55:45.652Z,50.99
2023-01-29T16:58:18.142Z,51.04
2023-01-29T17:00:50.948Z,50.88
2023-01-29T17:03:20.180Z,50.88
2023-01-29T17:05:51.055Z,50.92
2023-01-29T17:08:30.364Z,50.93
2023-01-29T17:10:59.493Z,50.70
2023-01-29T17:13:31.194Z,50.88
2023-01-29T17:16:14.021Z,51.03
2023-01-29T17:18:42.133Z,51.01
2023-01-29T17:21:10.069Z,51.25
2023-01-29T17:23:37.976Z,51.21
2023-01-29T17:26:10.117Z,51.28
2023-01-29T17:28:38.819Z,51.38
2023-01-29T17:31:10.122Z,51.28
2023-01-29T17:33:43.392Z,51.40
2023-01-29T17:36:13.338Z,51.54
2023-01-29T17:38:41.560Z,51.52
2023-01-29T17:41:20.020Z,51.61
2023-01-29T17:43:47.887Z,51.68
2023-01-29T17:46:17.247Z,51.86
2023-01-29T17:48:45.977Z,51.92
2023-01-29T17:51:16.428Z,52.22
2023-01-29T17:53:46.424Z,52.37
2023-01-29T17:56:22.681Z,52.44
2023-01-29T17:58:50.688Z,52.71
2023-01-29T18:01:18.644Z,52.72
2023-01-29T18:03:46.869Z,52.86
2023-01-29T18:06:28.510Z,52.69
2023-01-29T18:08:56.801Z,52.91
2023-01-29T18:11:26.607Z,52.83
2023-01-29T18:13:56.012Z,52.85
2023-01-29T18:16:25.496Z,53.04
2023-01-29T18:18:53.628Z,53.04
2023-01-29T18:21:22.784Z,52.96
2023-01-29T18:23:50.779Z,53.25
2023-01-29T18:26:18.729Z,53.53
2023-01-29T18:28:46.743Z,53.82
2023-01-29T18:31:14.959Z,54.00
2023-01-29T18:33:42.923Z,54.12
2023-01-29T18:36:11.298Z,53.97
2023-01-29T18:38:39.407Z,54.17
2023-01-29T18:41:12.308Z,54.40
2023-01-29T18:43:41.878Z,54.81
2023-01-29T18:46:10.477Z,55.16
2023-01-29T18:48:39.908Z,55.64
2023-01-29T18:51:09.084Z,55.52
2023-01-29T18:53:37.071Z,55.76
2023-01-29T18:56:06.602Z,55.93
2023-01-29T18:58:36.619Z,56.02
2023-01-29T19:01:09.673Z,56.18
2023-01-29T19:03:41.932Z,56.68
2023-01-29T19:06:11.591Z,56.37
2023-01-29T19:08:41.151Z,57.17
2023-01-29T19:11:09.772Z,57.33
2023-01-29T19:13:38.544Z,57.90
2023-01-29T19:16:09.129Z,58.17
2023-01-29T19:18:37.154Z,58.48
2023-01-29T19:21:12.328Z,58.13
2023-01-29T19:23:43.061Z,58.50
2023-01-29T19:26:11.696Z,58.75
2023-01-29T19:28:39.701Z,58.62
2023-01-29T19:31:09.539Z,58.54
2023-01-29T19:33:39.032Z,58.48
2023-01-29T19:36:07.775Z,58.59
2023-01-29T19:38:38.641Z,58.51
2023-01-29T19:41:06.745Z,58.62
2023-01-29T19:43:34.837Z,58.77
2023-01-29T19:46:02.857Z,58.49
2023-01-29T19:48:30.863Z,58.42
2023-01-29T19:51:09.660Z,58.31
2023-01-29T19:53:39.645Z,58.29
2023-01-29T19:56:10.577Z,58.42
2023-01-29T19:58:38.667Z,58.46
2023-01-29T20:01:13.874Z,58.63
2023-01-29T20:03:42.251Z,58.78
2023-01-29T20:06:10.106Z,58.96
2023-01-29T20:08:37.974Z,58.86
2023-01-29T20:11:05.851Z,59.08
2023-01-29T20:13:34.037Z,59.05
2023-01-29T20:16:04.071Z,59.02
2023-01-29T20:18:32.142Z,58.83
2023-01-29T20:21:09.863Z,58.93
2023-01-29T20:23:40.086Z,58.66
2023-01-29T20:26:11.585Z,58.47
2023-01-29T20:28:39.604Z,58.51
2023-01-29T20:31:10.126Z,58.47
2023-01-29T20:33:40.599Z,58.46
2023-01-29T20:36:10.957Z,58.40
2023-01-29T20:38:39.430Z,58.46
2023-01-29T20:41:16.774Z,58.38
2023-01-29T20:43:46.109Z,58.40
2023-01-29T20:46:14.257Z,58.33
2023-01-29T20:48:42.328Z,58.09
2023-01-29T20:51:15.675Z,58.10
2023-01-29T20:53:46.309Z,58.12
2023-01-29T20:56:16.431Z,58.05
2023-01-29T20:58:45.082Z,58.04
2023-01-29T21:01:17.013Z,58.18
2023-01-29T21:03:46.371Z,58.18
2023-01-29T21:06:15.851Z,58.39
2023-01-29T21:08:44.018Z,58.41
2023-01-29T21:11:12.055Z,58.37
2023-01-29T21:13:40.080Z,58.37
2023-01-29T21:16:10.869Z,58.37
2023-01-29T21:18:38.943Z,58.59
2023-01-29T21:21:06.953Z,58.62
2023-01-29T21:23:34.802Z,58.65
2023-01-29T21:26:04.820Z,58.30
2023-01-29T21:28:32.933Z,58.54
2023-01-29T21:31:10.117Z,58.37
2023-01-29T21:33:38.486Z,58.41
2023-01-29T21:36:06.866Z,58.34
2023-01-29T21:38:34.690Z,58.28
2023-01-29T21:41:11.689Z,58.26
2023-01-29T21:43:40.993Z,58.28
2023-01-29T21:46:12.161Z,58.22
2023-01-29T21:48:40.472Z,58.23
2023-01-29T21:51:08.958Z,58.41
2023-01-29T21:53:37.415Z,58.49
2023-01-29T21:56:06.304Z,58.74
2023-01-29T21:58:34.220Z,58.79
2023-01-29T22:01:36.001Z,58.89
2023-01-29T22:03:50.143Z,58.85
2023-01-29T22:06:18.336Z,58.99
2023-01-29T22:08:49.231Z,59.07
2023-01-29T22:11:17.986Z,58.79
2023-01-29T22:13:46.057Z,58.74
2023-01-29T22:16:13.950Z,58.75
2023-01-29T22:18:41.895Z,58.76
2023-01-29T22:21:09.746Z,58.74
2023-01-29T22:23:38.182Z,58.73
2023-01-29T22:26:07.664Z,58.74
2023-01-29T22:28:35.501Z,58.86
2023-01-29T22:31:05.068Z,58.87
2023-01-29T22:33:33.640Z,58.80
2023-01-29T22:36:01.736Z,58.81
2023-01-29T22:38:30.167Z,58.77
2023-01-29T22:41:00.545Z,58.44
2023-01-29T22:43:29.375Z,58.50
2023-01-29T22:45:57.662Z,58.46
2023-01-29T22:48:28.098Z,58.15
2023-01-29T22:51:13.111Z,58.04
2023-01-29T22:54:02.494Z,58.23
2023-01-29T22:56:31.274Z,58.42
2023-01-29T22:59:00.905Z,58.73
2023-01-29T23:01:31.404Z,58.72
2023-01-29T23:03:59.419Z,58.81
2023-01-29T23:06:27.391Z,58.75
2023-01-29T23:08:55.383Z,58.69
2023-01-29T23:11:23.972Z,58.62
2023-01-29T23:13:55.619Z,58.44
2023-01-29T23:16:27.769Z,58.56
2023-01-29T23:18:57.384Z,58.57
2023-01-29T23:21:45.483Z,58.63
2023-01-29T23:24:13.465Z,58.78
2023-01-29T23:26:59.852Z,58.67
2023-01-29T23:29:28.242Z,58.71
2023-01-29T23:31:56.264Z,58.59
2023-01-29T23:34:24.396Z,58.46
2023-01-29T23:36:52.358Z,58.58
2023-01-29T23:39:20.638Z,58.78
2023-01-29T23:41:48.587Z,58.91
2023-01-29T23:44:16.541Z,58.95
2023-01-29T23:46:44.581Z,59.09
2023-01-29T23:49:13.284Z,59.13
2023-01-29T23:51:41.239Z,59.16
2023-01-29T23:54:09.137Z,59.15
2023-01-29T23:56:36.993Z,59.16
2023-01-29T23:59:04.976Z,58.88
